createdAt,value
2023-04-11T00:01:39.088Z,30.8
2023-04-11T00:07:32.935Z,30.8
2023-04-11T00:13:25.015Z,30.8
2023-04-11T00:19:17.329Z,30.8
2023-04-11T00:25:09.361Z,30.7
2023-04-11T00:31:01.070Z,30.7
2023-04-11T00:36:52.944Z,30.6
2023-04-11T00:42:44.492Z,30.6
2023-04-11T00:48:36.068Z,30.6
2023-04-11T00:54:27.555Z,30.6
2023-04-11T01:00:18.870Z,30.5
2023-04-11T01:06:13.159Z,31
2023-04-11T01:12:05.233Z,31.9
2023-04-11T01:17:57.979Z,32.8
2023-04-11T01:23:19.043Z,33.8
2023-04-11T01:29:09.780Z,34.6
2023-04-11T01:35:02.336Z,35.4
2023-04-11T01:40:23.452Z,36.2
2023-04-11T01:46:14.724Z,36.9
2023-04-11T01:52:06.660Z,37.7
2023-04-11T01:57:57.779Z,38.4
2023-04-11T02:03:34.795Z,39.2
2023-04-11T02:09:27.767Z,39.9
2023-04-11T02:15:19.190Z,40.8
2023-04-11T02:21:11.262Z,41.5
2023-04-11T02:27:03.665Z,42.3
2023-04-11T02:32:55.817Z,43.1
2023-04-11T02:38:46.475Z,43.3
2023-04-11T02:44:37.788Z,43.4
2023-04-11T02:50:41.987Z,43.6
2023-04-11T02:56:33.345Z,43.6
2023-04-11T03:02:25.556Z,43.7
2023-04-11T03:08:02.819Z,43.6
2023-04-11T03:13:54.369Z,43.6
2023-04-11T03:19:46.650Z,43.6
2023-04-11T03:25:37.920Z,43.6
2023-04-11T03:31:29.231Z,43.5
2023-04-11T03:37:21.730Z,43.3
2023-04-11T03:42:57.968Z,43.1
2023-04-11T03:48:52.328Z,43.1
2023-04-11T03:54:45.378Z,42.9
2023-04-11T04:00:23.528Z,42.6
2023-04-11T04:06:17.948Z,42.4
2023-04-11T04:12:10.218Z,42.2
2023-04-11T04:18:02.109Z,40.9
2023-04-11T04:23:53.778Z,40.4
2023-04-11T04:29:47.187Z,40
2023-04-11T04:35:42.227Z,39.6
2023-04-11T04:41:34.307Z,39.1
2023-04-11T04:47:10.968Z,38.8
2023-04-11T04:53:03.696Z,38.5
2023-04-11T04:58:40.281Z,38.3
2023-04-11T05:04:34.380Z,38.1
2023-04-11T05:10:26.501Z,37.9
2023-04-11T05:16:20.460Z,37.8
2023-04-11T05:22:12.516Z,37.6
2023-04-11T05:28:04.381Z,37.5
2023-04-11T05:33:55.709Z,37.4
2023-04-11T05:39:47.782Z,37.3
2023-04-11T05:45:38.799Z,37.1
2023-04-11T05:51:30.253Z,37
2023-04-11T05:57:22.523Z,36.9
2023-04-11T06:03:06.270Z,36.8
2023-04-11T06:08:59.464Z,36.7
2023-04-11T06:14:56.010Z,36.6
2023-04-11T06:20:47.811Z,36.4
2023-04-11T06:26:38.530Z,36.4
2023-04-11T06:32:30.832Z,36.3
2023-04-11T06:38:22.912Z,36.2
2023-04-11T06:44:15.047Z,48.1
2023-04-11T06:49:51.881Z,45.1
2023-04-11T06:55:28.393Z,42.8
2023-04-11T07:01:20.276Z,41.4
2023-04-11T07:07:17.931Z,48.3
2023-04-11T07:13:09.899Z,44.9
2023-04-11T07:19:02.246Z,42.6
2023-04-11T07:24:54.010Z,41.2
2023-04-11T07:30:49.568Z,40.3
2023-04-11T07:36:25.319Z,48.8
2023-04-11T07:42:17.121Z,45.3
2023-04-11T07:48:09.087Z,42.7
2023-04-11T07:54:00.298Z,49.1
2023-04-11T07:59:51.472Z,49.4
2023-04-11T08:05:48.016Z,49.4
2023-04-11T08:11:40.931Z,48.8
2023-04-11T08:17:44.199Z,48.3
2023-04-11T08:23:38.639Z,47.8
2023-04-11T08:29:32.061Z,47.4
2023-04-11T08:35:12.288Z,46.8
2023-04-11T08:41:04.978Z,46.5
2023-04-11T08:46:55.984Z,46.9
2023-04-11T08:52:48.041Z,47
2023-04-11T08:58:40.054Z,48.2
2023-04-11T09:04:33.477Z,48.8
2023-04-11T09:10:25.004Z,48.6
2023-04-11T09:16:18.345Z,48.1
2023-04-11T09:22:17.106Z,48.7
2023-04-11T09:28:11.842Z,48.2
2023-04-11T09:34:04.178Z,47.8
2023-04-11T09:39:55.331Z,47.3
2023-04-11T09:46:00.553Z,47.6
2023-04-11T09:52:23.337Z,48.5
2023-04-11T09:58:18.426Z,49.8
2023-04-11T10:04:12.300Z,50.7
2023-04-11T10:10:04.502Z,51.3
2023-04-11T10:15:55.730Z,52
2023-04-11T10:21:52.447Z,52.3
2023-04-11T10:27:28.816Z,52.6
2023-04-11T10:33:20.420Z,54
2023-04-11T10:38:57.288Z,53.6
2023-04-11T10:44:34.214Z,54.1
2023-04-11T10:50:25.963Z,53.5
2023-04-11T10:56:18.048Z,54.3
2023-04-11T11:02:26.511Z,54.8
2023-04-11T11:08:41.445Z,53.1
2023-04-11T11:14:19.505Z,52.3
2023-04-11T11:20:12.051Z,51.8
2023-04-11T11:25:57.388Z,52.9
2023-04-11T11:31:49.293Z,53.3
2023-04-11T11:37:45.150Z,53.6
2023-04-11T11:43:36.479Z,54.6
2023-04-11T11:49:00.390Z,54.8
2023-04-11T11:54:52.124Z,53.8
2023-04-11T12:00:30.598Z,54.3
2023-04-11T12:06:25.559Z,53.5
2023-04-11T12:12:17.704Z,53.3
2023-04-11T12:17:40.492Z,54.1
2023-04-11T12:23:32.907Z,53.1
2023-04-11T12:29:31.659Z,52.6
2023-04-11T12:35:25.382Z,50.2
2023-04-11T12:41:47.156Z,47.5
2023-04-11T12:47:27.343Z,54.2
2023-04-11T12:53:19.249Z,54.5
2023-04-11T12:59:10.879Z,54.4
2023-04-11T13:05:13.276Z,54.1
2023-04-11T13:11:05.636Z,53.5
2023-04-11T13:17:12.690Z,52.7
2023-04-11T13:23:05.243Z,50.6
2023-04-11T13:28:57.758Z,47.6
2023-04-11T13:34:50.299Z,45.6
2023-04-11T13:40:44.209Z,44.4
2023-04-11T13:46:35.862Z,43.6
2023-04-11T13:52:12.710Z,42.9
2023-04-11T13:58:04.536Z,42.3
2023-04-11T14:04:13.814Z,41.8
2023-04-11T14:10:06.242Z,41.4
2023-04-11T14:16:07.774Z,41
2023-04-11T14:22:01.862Z,40.6
2023-04-11T14:27:54.715Z,40.3
2023-04-11T14:33:48.226Z,40
2023-04-11T14:39:39.832Z,39.8
2023-04-11T14:45:33.931Z,39.5
2023-04-11T14:51:26.398Z,39.3
2023-04-11T14:57:18.165Z,39.1
2023-04-11T15:03:10.650Z,38.9
2023-04-11T15:09:04.139Z,38.7
2023-04-11T15:14:55.934Z,38.5
2023-04-11T15:20:50.655Z,38.3
2023-04-11T15:26:42.297Z,38.1
2023-04-11T15:32:34.548Z,37.9
2023-04-11T15:38:29.250Z,37.8
2023-04-11T15:44:05.532Z,37.6
2023-04-11T15:49:57.718Z,37.4
2023-04-11T15:55:50.446Z,37.3
2023-04-11T16:01:42.009Z,37.1
2023-04-11T16:07:24.943Z,36.9
2023-04-11T16:13:16.950Z,36.8
2023-04-11T16:18:53.641Z,36.7
2023-04-11T16:24:46.217Z,36.6
2023-04-11T16:30:37.982Z,36.4
2023-04-11T16:36:33.694Z,35.4
2023-04-11T16:42:28.628Z,34.6
2023-04-11T16:47:34.985Z,34
2023-04-11T16:52:56.658Z,33.8
2023-04-11T16:58:47.728Z,33.4
2023-04-11T17:04:42.458Z,33.3
2023-04-11T17:10:34.506Z,33.1
2023-04-11T17:15:55.356Z,33
2023-04-11T17:21:32.647Z,32.9
2023-04-11T17:27:24.392Z,32.8
2023-04-11T17:33:16.672Z,32.8
2023-04-11T17:39:08.306Z,32.7
2023-04-11T17:45:17.449Z,32.6
2023-04-11T17:50:55.357Z,32.6
2023-04-11T17:56:43.792Z,32.5
2023-04-11T18:02:53.991Z,32.4
2023-04-11T18:08:47.219Z,32.3
2023-04-11T18:14:10.554Z,31.9
2023-04-11T18:19:47.384Z,31.6
2023-04-11T18:25:08.186Z,31.2
2023-04-11T18:31:00.321Z,30.8
2023-04-11T18:37:07.700Z,30.4
2023-04-11T18:43:03.207Z,30.2
2023-04-11T18:48:50.425Z,28.6
2023-04-11T18:54:36.115Z,25.1
2023-04-11T19:00:43.318Z,23.6
2023-04-11T19:06:28.133Z,22.8
2023-04-11T19:12:05.144Z,22.3
2023-04-11T19:17:43.818Z,22.5
2023-04-11T19:23:22.215Z,23.3
2023-04-11T19:28:59.547Z,24.9
2023-04-11T19:34:37.757Z,27.1
2023-04-11T19:40:15.894Z,29.4
2023-04-11T19:45:38.290Z,31.6
2023-04-11T19:51:18.306Z,33.7
2023-04-11T19:56:56.724Z,35.7
2023-04-11T20:02:35.438Z,37.4
2023-04-11T20:08:00.738Z,38.7
2023-04-11T20:13:39.377Z,39.5
2023-04-11T20:19:17.049Z,39.8
2023-04-11T20:24:37.900Z,39.9
2023-04-11T20:30:15.290Z,40
2023-04-11T20:35:52.926Z,40.1
2023-04-11T20:41:31.627Z,40.1
2023-04-11T20:47:08.591Z,40.1
2023-04-11T20:52:45.540Z,40.1
2023-04-11T20:58:21.498Z,40.1
2023-04-11T21:03:59.946Z,40.1
2023-04-11T21:09:51.780Z,40.1
2023-04-11T21:15:42.731Z,40.1
2023-04-11T21:21:34.249Z,40
2023-04-11T21:27:25.843Z,40
2023-04-11T21:33:02.888Z,39.9
2023-04-11T21:38:54.967Z,39.9
2023-04-11T21:44:46.678Z,39.9
2023-04-11T21:50:38.738Z,39.8
2023-04-11T21:56:31.302Z,39.8
2023-04-11T22:02:35.812Z,39.8
2023-04-11T22:08:40.777Z,39.7
2023-04-11T22:14:43.301Z,39.6
2023-04-11T22:20:35.792Z,39.6
2023-04-11T22:26:27.680Z,39.5
2023-04-11T22:32:20.081Z,39.4
2023-04-11T22:37:56.333Z,39.4
2023-04-11T22:43:47.744Z,39.4
2023-04-11T22:49:40.097Z,39.3
2023-04-11T22:55:31.567Z,39.3
2023-04-11T23:01:21.856Z,39.2
2023-04-11T23:07:14.710Z,39.1
2023-04-11T23:12:51.415Z,39.1
2023-04-11T23:18:43.146Z,39
2023-04-11T23:24:19.138Z,38.9
2023-04-11T23:30:10.706Z,38.9
2023-04-11T23:35:46.431Z,38.8
2023-04-11T23:41:07.563Z,38.8
2023-04-11T23:46:28.821Z,38.7
2023-04-11T23:51:49.157Z,38.7
2023-04-11T23:56:54.249Z,38.6
